createdAt,value
2022-12-14T06:03:10.935Z,81.17
2022-12-14T06:08:13.096Z,81.30
2022-12-14T06:13:15.146Z,80.57
2022-12-14T06:18:17.135Z,80.47
2022-12-14T06:23:19.233Z,81.08
2022-12-14T06:28:22.080Z,80.07
2022-12-14T06:33:24.258Z,81.25
2022-12-14T06:38:26.422Z,80.57
2022-12-14T06:43:28.901Z,80.86
2022-12-14T06:48:31.314Z,79.98
2022-12-14T06:53:33.949Z,80.53
2022-12-14T06:58:36.233Z,80.44
2022-12-14T07:03:38.379Z,79.99
2022-12-14T07:08:40.407Z,79.87
2022-12-14T07:13:42.463Z,81.03
2022-12-14T07:18:44.520Z,80.60
2022-12-14T07:23:47.946Z,80.34
2022-12-14T07:28:50.442Z,80.85
2022-12-14T07:33:53.284Z,80.48
2022-12-14T07:38:58.347Z,80.85
2022-12-14T07:44:01.142Z,80.89
2022-12-14T07:49:03.883Z,80.89
2022-12-14T07:54:06.365Z,80.34
2022-12-14T07:59:11.246Z,79.62
2022-12-14T08:04:14.973Z,79.15
2022-12-14T08:09:17.699Z,77.45
2022-12-14T08:14:19.884Z,77.17
2022-12-14T08:19:21.900Z,75.85
2022-12-14T08:24:23.925Z,75.85
2022-12-14T08:29:25.903Z,75.27
2022-12-14T08:34:28.012Z,74.42
2022-12-14T08:39:30.023Z,74.86
2022-12-14T08:44:32.002Z,73.60
2022-12-14T08:49:34.067Z,73.92
2022-12-14T08:54:36.444Z,72.46
2022-12-14T09:00:00.635Z,72.52
2022-12-14T09:05:02.719Z,72.19
2022-12-14T09:10:04.943Z,71.74
2022-12-14T09:15:07.625Z,71.97
2022-12-14T09:20:10.497Z,71.99
2022-12-14T09:25:12.704Z,70.80
2022-12-14T09:30:14.675Z,70.97
2022-12-14T09:35:16.737Z,72.07
2022-12-14T09:40:19.188Z,70.69
2022-12-14T09:45:46.984Z,71.15
2022-12-14T09:50:50.405Z,71.33
2022-12-14T09:55:57.365Z,71.66
2022-12-14T10:01:02.173Z,71.14
2022-12-14T10:06:24.458Z,69.51
2022-12-14T10:11:39.632Z,70.95
2022-12-14T10:16:56.706Z,70.10
2022-12-14T10:22:04.163Z,70.06
2022-12-14T10:27:07.222Z,71.43
2022-12-14T10:32:09.316Z,68.14
2022-12-14T10:37:14.312Z,69.78
2022-12-14T10:42:16.478Z,70.49
2022-12-14T10:47:18.499Z,71.37
2022-12-14T10:52:23.179Z,71.89
2022-12-14T10:57:26.676Z,71.59
2022-12-14T11:02:29.046Z,71.43
2022-12-14T11:07:33.997Z,72.32
2022-12-14T11:12:36.170Z,72.33
2022-12-14T11:17:39.814Z,72.52
2022-12-14T11:22:52.677Z,72.78
2022-12-14T11:27:55.100Z,73.44
2022-12-14T11:32:57.499Z,73.15
2022-12-14T11:38:00.482Z,72.64
2022-12-14T11:43:04.562Z,71.25
2022-12-14T11:48:15.770Z,71.70
2022-12-14T11:53:20.199Z,71.89
2022-12-14T11:58:37.941Z,72.56
2022-12-14T12:03:48.658Z,72.38
2022-12-14T12:09:14.106Z,73.13
2022-12-14T12:14:25.517Z,72.90
2022-12-14T12:19:38.145Z,72.37
2022-12-14T12:25:24.948Z,72.92
2022-12-14T12:30:29.990Z,72.39
2022-12-14T12:35:48.821Z,70.61
2022-12-14T12:40:59.213Z,69.74
2022-12-14T12:46:13.694Z,68.46
2022-12-14T12:51:22.222Z,68.71
2022-12-14T12:56:36.761Z,70.22
2022-12-14T13:01:43.932Z,69.86
2022-12-14T13:06:57.135Z,69.54
2022-12-14T13:12:01.342Z,70.11
2022-12-14T13:17:06.746Z,70.68
2022-12-14T13:22:15.149Z,70.31
2022-12-14T13:27:49.940Z,70.91
2022-12-14T13:32:58.157Z,71.66
2022-12-14T13:38:09.185Z,71.66
2022-12-14T13:43:14.476Z,72.38
2022-12-14T13:48:25.891Z,72.53
2022-12-14T13:53:40.503Z,72.96
2022-12-14T13:58:46.347Z,73.27
2022-12-14T14:04:18.467Z,73.49
2022-12-14T14:09:24.609Z,73.42
2022-12-14T14:14:35.507Z,74.11
2022-12-14T14:19:41.292Z,73.81
2022-12-14T14:24:58.457Z,73.58
2022-12-14T14:30:01.706Z,73.93
2022-12-14T14:35:27.235Z,74.15
2022-12-14T14:41:06.746Z,74.77
2022-12-14T14:45:58.888Z,74.36
2022-12-14T14:51:08.882Z,74.80
2022-12-14T14:56:29.506Z,74.55
2022-12-14T15:01:31.977Z,74.95
2022-12-14T15:06:40.893Z,75.06
2022-12-14T15:11:45.947Z,74.60
2022-12-14T15:16:51.195Z,75.30
2022-12-14T15:21:58.319Z,75.24
2022-12-14T15:27:10.119Z,75.43
2022-12-14T15:32:17.640Z,75.17
2022-12-14T15:37:30.329Z,75.54
2022-12-14T15:42:32.697Z,76.00
2022-12-14T15:47:35.133Z,75.66
2022-12-14T15:52:38.877Z,75.53
2022-12-14T15:57:41.466Z,75.69
2022-12-14T16:02:44.258Z,75.37
2022-12-14T16:07:54.384Z,75.57
2022-12-14T16:13:03.281Z,75.90
2022-12-14T16:18:05.656Z,76.02
2022-12-14T16:23:13.599Z,75.95
2022-12-14T16:28:22.038Z,76.39
2022-12-14T16:33:25.354Z,76.59
2022-12-14T16:38:28.401Z,75.95
2022-12-14T16:43:41.793Z,76.31
2022-12-14T16:48:50.026Z,76.13
2022-12-14T16:53:57.686Z,76.83
2022-12-14T16:59:03.365Z,76.51
2022-12-14T17:04:06.923Z,76.65
2022-12-14T17:09:19.998Z,77.00
2022-12-14T17:14:22.538Z,77.26
2022-12-14T17:19:37.205Z,77.33
2022-12-14T17:24:40.109Z,77.25
2022-12-14T17:29:42.406Z,76.57
2022-12-14T17:34:45.865Z,76.58
2022-12-14T17:39:48.131Z,77.23
2022-12-14T17:44:55.293Z,76.72
2022-12-14T17:49:57.596Z,76.76
2022-12-14T17:54:59.860Z,76.32
2022-12-14T18:00:20.830Z,76.63
2022-12-14T18:05:23.234Z,76.59
2022-12-14T18:10:25.877Z,76.68
2022-12-14T18:15:34.493Z,77.37
2022-12-14T18:20:38.413Z,77.01
2022-12-14T18:25:43.547Z,76.04
2022-12-14T18:30:55.417Z,76.20
2022-12-14T18:35:57.962Z,77.00
2022-12-14T18:41:01.826Z,76.88
2022-12-14T18:46:04.208Z,77.38
2022-12-14T18:51:07.727Z,76.90
2022-12-14T18:56:11.759Z,76.51
2022-12-14T19:01:21.005Z,76.37
2022-12-14T19:11:47.520Z,77.44
2022-12-14T19:16:49.749Z,77.26
2022-12-14T19:21:51.997Z,75.97
2022-12-14T19:26:54.211Z,76.99
2022-12-14T19:32:00.387Z,77.27
2022-12-14T19:37:07.168Z,77.22
2022-12-14T19:42:09.405Z,76.65
2022-12-14T19:47:12.605Z,76.45
2022-12-14T19:52:14.911Z,77.16
2022-12-14T19:57:17.216Z,76.91
2022-12-14T20:02:19.502Z,76.42
2022-12-14T20:07:21.885Z,76.21
2022-12-14T20:12:27.215Z,76.65
2022-12-14T20:17:29.990Z,77.28
2022-12-14T20:22:32.247Z,76.03
2022-12-14T20:27:38.978Z,76.99
2022-12-14T20:32:43.021Z,76.70
2022-12-14T20:37:54.513Z,76.81
2022-12-14T20:42:56.804Z,76.69
2022-12-14T20:47:59.353Z,76.76
2022-12-14T20:53:01.887Z,76.37
2022-12-14T20:58:04.181Z,76.76
2022-12-14T21:03:06.596Z,77.29
2022-12-14T21:08:09.703Z,76.94
2022-12-14T21:13:11.947Z,76.24
2022-12-14T21:18:14.176Z,77.12
2022-12-14T21:23:16.504Z,76.20
2022-12-14T21:28:18.833Z,76.67
2022-12-14T21:33:21.085Z,76.38
2022-12-14T21:38:23.477Z,76.34
2022-12-14T21:43:25.682Z,75.88
2022-12-14T21:48:27.906Z,76.85
2022-12-14T21:53:35.026Z,76.23
2022-12-14T21:58:37.728Z,76.54
2022-12-14T22:03:39.989Z,76.36
2022-12-14T22:08:42.256Z,76.10
2022-12-14T22:13:44.459Z,76.57
2022-12-14T22:18:47.243Z,76.57
2022-12-14T22:23:50.999Z,76.40
2022-12-14T22:28:53.679Z,76.81
2022-12-14T22:33:55.896Z,75.80
2022-12-14T22:38:59.299Z,76.15
2022-12-14T22:44:01.494Z,76.42
2022-12-14T22:49:04.153Z,76.68
2022-12-14T22:54:06.980Z,76.48
2022-12-14T22:59:28.382Z,76.74
2022-12-14T23:04:30.829Z,76.01
2022-12-14T23:09:51.888Z,76.65
2022-12-14T23:15:12.622Z,76.33
2022-12-14T23:20:33.442Z,76.05
2022-12-14T23:25:54.201Z,75.98
2022-12-14T23:31:16.057Z,76.57
2022-12-14T23:36:36.925Z,75.90
2022-12-14T23:41:57.371Z,75.95
2022-12-14T23:47:18.217Z,76.13
2022-12-14T23:52:38.645Z,76.71
2022-12-14T23:57:59.470Z,76.01
